Time;durP1;ratioP1;P1;durP2;ratioP2;P2;SDS_P1;SDS_P2;PMS_P1;PMS_P2;Temp;Humidity;BMP_temperature;BMP_pressure;BME280_temperature;BME280_humidity;BME280_pressure;Samples;Min_cycle;Max_cycle;Signal;HPM_P1;HPM_P2
2021/08/13 00:00:41;;;;;;;5.63;0.80;;;;;;;;;;2619585;31;20860;-74
2021/08/13 00:03:07;;;;;;;3.65;0.65;;;;;;;;;;2619667;39;20719;-72
2021/08/13 00:05:34;;;;;;;3.95;0.80;;;;;;;;;;2618130;47;20350;-73
2021/08/13 00:08:01;;;;;;;3.95;0.77;;;;;;;;;;2618691;54;20379;-74
2021/08/13 00:10:27;;;;;;;3.60;0.70;;;;;;;;;;2618580;54;20359;-74
2021/08/13 00:12:54;;;;;;;4.72;0.90;;;;;;;;;;2618501;54;20355;-72
2021/08/13 00:15:20;;;;;;;4.67;0.80;;;;;;;;;;2618170;47;20371;-73
2021/08/13 00:17:46;;;;;;;4.40;1.00;;;;;;;;;;2618447;54;20350;-75
2021/08/13 00:20:13;;;;;;;7.05;0.90;;;;;;;;;;2618646;54;20347;-73
2021/08/13 00:22:39;;;;;;;2.97;0.85;;;;;;;;;;2618624;54;20339;-74
2021/08/13 00:25:07;;;;;;;4.78;0.90;;;;;;;;;;2618729;54;20347;-74
2021/08/13 00:27:34;;;;;;;4.60;0.73;;;;;;;;;;2618686;54;20367;-74
2021/08/13 00:30:00;;;;;;;7.40;1.00;;;;;;;;;;2618880;54;20848;-72
2021/08/13 00:32:26;;;;;;;5.32;0.73;;;;;;;;;;2617935;54;20351;-74
2021/08/13 00:34:52;;;;;;;3.95;0.70;;;;;;;;;;2618540;54;20851;-74
2021/08/13 00:37:18;;;;;;;2.72;0.68;;;;;;;;;;2618687;54;20346;-74
2021/08/13 00:39:45;;;;;;;3.40;0.90;;;;;;;;;;2618648;54;20394;-73
2021/08/13 00:42:12;;;;;;;5.15;1.00;;;;;;;;;;2618235;47;20363;-75
2021/08/13 00:44:39;;;;;;;5.40;1.10;;;;;;;;;;2618168;47;20368;-73
2021/08/13 00:47:05;;;;;;;5.30;1.00;;;;;;;;;;2618155;47;20395;-74
2021/08/13 00:49:31;;;;;;;4.57;0.77;;;;;;;;;;2619050;39;20743;-76
2021/08/13 00:51:57;;;;;;;5.07;0.80;;;;;;;;;;2618743;54;20866;-75
2021/08/13 00:54:24;;;;;;;5.32;0.70;;;;;;;;;;2618536;54;20355;-73
2021/08/13 00:56:50;;;;;;;3.25;0.77;;;;;;;;;;2618677;54;20449;-73
2021/08/13 00:59:18;;;;;;;5.77;0.80;;;;;;;;;;2618304;47;20594;-75
2021/08/13 01:04:13;;;;;;;4.23;0.93;;;;;;;;;;2618677;54;20386;-71
2021/08/13 01:06:39;;;;;;;5.93;1.10;;;;;;;;;;2618221;54;20362;-70
2021/08/13 01:09:05;;;;;;;5.63;1.00;;;;;;;;;;2618089;54;20343;-71
2021/08/13 01:11:38;;;;;;;3.77;1.07;;;;;;;;;;2617511;47;20339;-70
2021/08/13 01:14:08;;;;;;;4.05;1.20;;;;;;;;;;2618031;54;20450;-69
2021/08/13 01:16:38;;;;;;;4.93;0.90;;;;;;;;;;2618121;54;20351;-71
2021/08/13 01:19:08;;;;;;;5.70;0.70;;;;;;;;;;2618047;54;20369;-72
2021/08/13 01:21:42;;;;;;;2.87;0.67;;;;;;;;;;2618155;54;20438;-70
2021/08/13 01:24:11;;;;;;;5.93;1.08;;;;;;;;;;2616693;54;20343;-71
2021/08/13 01:26:40;;;;;;;5.05;0.90;;;;;;;;;;2616808;54;20434;-71
2021/08/13 01:29:12;;;;;;;5.35;0.73;;;;;;;;;;2617228;47;20362;-70
2021/08/13 01:31:44;;;;;;;4.90;0.60;;;;;;;;;;2617784;54;20351;-71
2021/08/13 01:34:13;;;;;;;4.27;0.90;;;;;;;;;;2617925;39;20716;-71
2021/08/13 01:36:40;;;;;;;5.40;0.70;;;;;;;;;;2617568;54;20378;-71
2021/08/13 01:39:07;;;;;;;4.68;0.80;;;;;;;;;;2617667;54;20346;-72
2021/08/13 01:41:34;;;;;;;7.00;0.82;;;;;;;;;;2617486;54;20909;-72
2021/08/13 01:44:01;;;;;;;4.50;0.80;;;;;;;;;;2617516;46;20359;-74
2021/08/13 01:46:28;;;;;;;6.75;0.80;;;;;;;;;;2617551;54;20902;-73
2021/08/13 01:48:55;;;;;;;5.43;1.00;;;;;;;;;;2617489;46;20361;-71
2021/08/13 01:51:23;;;;;;;4.18;0.77;;;;;;;;;;2617521;54;20359;-71
2021/08/13 01:53:50;;;;;;;4.38;0.80;;;;;;;;;;2617525;54;20351;-71
2021/08/13 01:56:17;;;;;;;4.32;1.15;;;;;;;;;;2617497;54;20439;-74
2021/08/13 01:58:43;;;;;;;3.08;0.75;;;;;;;;;;2617975;39;20845;-71
2021/08/13 02:01:10;;;;;;;5.13;0.90;;;;;;;;;;2617459;47;20454;-71
2021/08/13 02:03:38;;;;;;;4.35;1.00;;;;;;;;;;2616283;54;20351;-71
2021/08/13 02:06:05;;;;;;;3.60;0.70;;;;;;;;;;2618691;54;20346;-69
2021/08/13 02:08:33;;;;;;;4.97;1.20;;;;;;;;;;2618130;51;20878;-71
2021/08/13 02:11:00;;;;;;;4.30;0.90;;;;;;;;;;2619446;31;20783;-71
2021/08/13 02:13:26;;;;;;;5.18;1.02;;;;;;;;;;2618946;54;20381;-71
2021/08/13 02:15:54;;;;;;;3.83;0.70;;;;;;;;;;2618711;54;20879;-73
2021/08/13 02:18:22;;;;;;;5.50;0.95;;;;;;;;;;2619079;54;20397;-71
2021/08/13 02:20:49;;;;;;;5.83;1.30;;;;;;;;;;2618743;54;20343;-72
2021/08/13 02:23:19;;;;;;;5.33;1.00;;;;;;;;;;2618804;54;20371;-73
2021/08/13 02:25:47;;;;;;;3.80;0.85;;;;;;;;;;2618777;54;20430;-72
2021/08/13 02:28:13;;;;;;;4.47;1.05;;;;;;;;;;2618351;46;20354;-72
2021/08/13 02:30:39;;;;;;;3.10;0.70;;;;;;;;;;2618153;47;20388;-73
2021/08/13 02:33:06;;;;;;;6.40;0.80;;;;;;;;;;2618358;46;20373;-72
2021/08/13 02:35:33;;;;;;;4.30;0.88;;;;;;;;;;2618855;54;20354;-71
2021/08/13 02:38:03;;;;;;;3.57;0.80;;;;;;;;;;2618842;54;20342;-73
2021/08/13 02:40:31;;;;;;;4.45;0.88;;;;;;;;;;2618689;54;20355;-73
2021/08/13 02:43:00;;;;;;;4.63;0.82;;;;;;;;;;2619004;54;20339;-73
2021/08/13 02:45:27;;;;;;;4.85;0.90;;;;;;;;;;2618833;54;20863;-74
2021/08/13 02:47:58;;;;;;;4.57;0.80;;;;;;;;;;2618960;54;20339;-72
2021/08/13 02:50:25;;;;;;;4.32;0.80;;;;;;;;;;2619298;39;20776;-72
2021/08/13 02:52:53;;;;;;;4.72;0.77;;;;;;;;;;2618115;47;20363;-72
2021/08/13 02:55:21;;;;;;;3.47;0.80;;;;;;;;;;2618198;46;20361;-72
2021/08/13 02:57:51;;;;;;;4.90;0.75;;;;;;;;;;2618503;47;20913;-73
2021/08/13 03:00:19;;;;;;;4.80;0.60;;;;;;;;;;2618890;54;21020;-72
2021/08/13 03:02:46;;;;;;;4.03;0.70;;;;;;;;;;2618408;46;20392;-72
2021/08/13 03:05:13;;;;;;;4.13;1.00;;;;;;;;;;2617516;54;20400;-72
2021/08/13 03:07:40;;;;;;;3.05;0.57;;;;;;;;;;2619038;54;20877;-72
2021/08/13 03:10:07;;;;;;;3.80;0.95;;;;;;;;;;2618811;54;20348;-72
2021/08/13 03:12:36;;;;;;;5.38;0.77;;;;;;;;;;2619143;54;20863;-74
2021/08/13 03:15:02;;;;;;;3.80;0.85;;;;;;;;;;2619164;54;20344;-72
2021/08/13 03:17:30;;;;;;;3.53;0.52;;;;;;;;;;2618127;46;20350;-73
2021/08/13 03:19:57;;;;;;;3.75;1.00;;;;;;;;;;2619213;54;20898;-74
2021/08/13 03:22:23;;;;;;;4.40;0.90;;;;;;;;;;2620681;54;20343;-73
2021/08/13 03:24:49;;;;;;;6.18;1.20;;;;;;;;;;2619426;39;20748;-72
2021/08/13 03:27:16;;;;;;;3.35;0.85;;;;;;;;;;2618727;54;20359;-71
2021/08/13 03:29:43;;;;;;;5.05;1.08;;;;;;;;;;2618643;54;20358;-71
2021/08/13 03:32:10;;;;;;;2.45;0.88;;;;;;;;;;2619243;39;20756;-72
2021/08/13 03:34:37;;;;;;;4.22;0.90;;;;;;;;;;2619184;39;20739;-73
2021/08/13 03:37:04;;;;;;;3.60;0.82;;;;;;;;;;2618846;54;20378;-73
2021/08/13 03:39:30;;;;;;;4.47;0.70;;;;;;;;;;2618599;54;20380;-71
2021/08/13 03:41:56;;;;;;;5.53;0.80;;;;;;;;;;2618869;54;20343;-72
2021/08/13 03:44:23;;;;;;;5.65;0.77;;;;;;;;;;2619231;39;20708;-72
2021/08/13 03:46:49;;;;;;;3.92;0.85;;;;;;;;;;2618987;39;20723;-71
2021/08/13 03:49:15;;;;;;;3.50;0.93;;;;;;;;;;2618527;54;20378;-72
2021/08/13 03:51:43;;;;;;;5.53;0.95;;;;;;;;;;2618139;54;20347;-72
2021/08/13 03:54:09;;;;;;;3.88;0.95;;;;;;;;;;2618047;47;20359;-72
2021/08/13 03:56:36;;;;;;;3.53;0.60;;;;;;;;;;2618603;54;20353;-72
2021/08/13 03:59:02;;;;;;;3.30;0.80;;;;;;;;;;2618636;54;20416;-72
2021/08/13 04:01:28;;;;;;;4.18;1.40;;;;;;;;;;2618470;54;20355;-71
2021/08/13 04:03:54;;;;;;;3.20;0.70;;;;;;;;;;2618524;54;20370;-72
2021/08/13 04:06:21;;;;;;;5.35;1.13;;;;;;;;;;2618059;54;20387;-73
2021/08/13 04:08:48;;;;;;;4.07;0.70;;;;;;;;;;2619277;39;20700;-72
2021/08/13 04:11:15;;;;;;;3.90;0.95;;;;;;;;;;2618803;54;20450;-73
2021/08/13 04:13:41;;;;;;;5.97;0.98;;;;;;;;;;2618627;54;20450;-70
2021/08/13 04:16:07;;;;;;;4.78;1.08;;;;;;;;;;2617207;54;20343;-73
2021/08/13 04:18:33;;;;;;;4.75;0.90;;;;;;;;;;2617624;47;20383;-74
2021/08/13 04:21:00;;;;;;;4.95;0.93;;;;;;;;;;2617610;54;20351;-73
2021/08/13 04:23:26;;;;;;;6.70;1.15;;;;;;;;;;2617684;54;20343;-72
2021/08/13 04:25:54;;;;;;;5.23;1.03;;;;;;;;;;2617271;46;20355;-73
2021/08/13 04:28:20;;;;;;;3.15;0.85;;;;;;;;;;2618323;31;20823;-71
2021/08/13 04:30:47;;;;;;;3.80;0.60;;;;;;;;;;2617298;47;20361;-72
2021/08/13 04:33:14;;;;;;;4.38;0.65;;;;;;;;;;2617586;54;20475;-71
2021/08/13 04:35:41;;;;;;;3.35;0.90;;;;;;;;;;2617895;39;20732;-73
2021/08/13 04:38:07;;;;;;;5.78;1.10;;;;;;;;;;2617516;47;20358;-70
2021/08/13 04:40:34;;;;;;;3.70;0.85;;;;;;;;;;2617076;54;20493;-72
2021/08/13 04:43:01;;;;;;;4.88;0.85;;;;;;;;;;2617697;39;20743;-71
2021/08/13 04:45:27;;;;;;;3.33;0.63;;;;;;;;;;2618083;39;20736;-76
2021/08/13 04:47:54;;;;;;;2.58;0.88;;;;;;;;;;2618495;54;20866;-72
2021/08/13 04:50:20;;;;;;;4.00;1.05;;;;;;;;;;2618363;46;20890;-73
2021/08/13 04:52:47;;;;;;;5.00;0.95;;;;;;;;;;2618261;54;20452;-72
2021/08/13 04:55:18;;;;;;;3.57;0.93;;;;;;;;;;2619243;39;20741;-72
2021/08/13 04:57:44;;;;;;;5.43;0.93;;;;;;;;;;2617952;47;20351;-72
2021/08/13 05:00:12;;;;;;;4.30;0.73;;;;;;;;;;2618152;47;20404;-72
2021/08/13 05:02:40;;;;;;;3.37;0.70;;;;;;;;;;2617856;47;20401;-73
2021/08/13 05:05:06;;;;;;;3.97;0.90;;;;;;;;;;2618811;54;20347;-72
2021/08/13 05:07:33;;;;;;;4.13;1.00;;;;;;;;;;2617706;54;20436;-73
2021/08/13 05:10:05;;;;;;;5.03;1.00;;;21.30;99.90;;;;;;2618544;54;20351;-74
2021/08/13 05:12:31;;;;;;;3.88;0.80;;;;;;;;;;2618392;54;20351;-72
2021/08/13 05:14:58;;;;;;;4.55;0.77;;;;;;;;;;2617829;47;20375;-73
2021/08/13 05:17:25;;;;;;;4.97;0.80;;;;;;;;;;2618478;54;20351;-72
2021/08/13 05:19:51;;;;;;;4.15;0.75;;;;;;;;;;2618341;54;20359;-72
2021/08/13 05:22:18;;;;;;;2.63;0.80;;;;;;;;;;2617997;47;20381;-73
2021/08/13 05:24:44;;;;;;;6.43;1.23;;;;;;;;;;2617865;47;20386;-73
2021/08/13 05:27:10;;;;;;;4.63;0.98;;;;;;;;;;2618507;54;20441;-75
2021/08/13 05:29:36;;;;;;;3.17;0.80;;;;;;;;;;2618286;54;20466;-72
2021/08/13 05:32:03;;;;;;;2.63;0.70;;;;;;;;;;2618502;54;20354;-73
2021/08/13 05:34:31;;;;;;;4.22;1.00;;;;;;;;;;2617717;47;20375;-72
2021/08/13 05:36:57;;;;;;;4.35;1.00;;;;;;;;;;2618566;54;20352;-72
2021/08/13 05:39:23;;;;;;;3.53;0.80;;;;;;;;;;2618431;54;20350;-70
2021/08/13 05:41:49;;;;;;;4.38;0.85;;;;;;;;;;2618444;54;20343;-72
2021/08/13 05:44:15;;;;;;;3.90;1.05;;;;;;;;;;2618379;54;20446;-73
2021/08/13 05:46:42;;;;;;;3.67;1.05;;;;;;;;;;2618369;54;20355;-72
2021/08/13 05:49:08;;;;;;;4.22;0.88;;;;;;;;;;2618344;54;20355;-73
2021/08/13 05:51:36;;;;;;;4.13;0.98;;;;;;;;;;2618300;54;20427;-74
2021/08/13 05:54:02;;;;;;;3.42;0.80;;;;;;;;;;2618280;54;20359;-71
2021/08/13 05:56:28;;;;;;;5.15;0.80;;;;;;;;;;2618200;54;20346;-73
2021/08/13 05:59:00;;;;;;;5.05;0.80;;;;;;;;;;2618873;39;20723;-71
2021/08/13 06:01:26;;;;;;;4.03;0.77;;;;;;;;;;2618309;54;20339;-72
2021/08/13 06:03:52;;;;;;;4.78;0.80;;;;;;;;;;2618247;54;20359;-72
2021/08/13 06:06:18;;;;;;;3.97;1.10;;;;;;;;;;2618391;54;20350;-73
2021/08/13 06:08:47;;;;;;;6.68;1.05;;;;;;;;;;2618139;54;20446;-72
2021/08/13 06:11:13;;;;;;;4.90;0.90;;;;;;;;;;2618325;54;20851;-71
2021/08/13 06:13:40;;;;;;;5.80;1.07;;;;;;;;;;2618146;54;20367;-73
2021/08/13 06:16:06;;;;;;;3.47;0.77;;;;;;;;;;2618628;54;20343;-73
2021/08/13 06:18:32;;;;;;;3.83;0.82;;;;;;;;;;2619168;54;20335;-72
2021/08/13 06:20:59;;;;;;;3.63;0.80;;;;;;;;;;2619333;54;20362;-71
2021/08/13 06:23:25;;;;;;;4.70;0.90;;;;;;;;;;2619736;54;20354;-71
2021/08/13 06:25:53;;;;;;;3.97;0.80;;;;;;;;;;2618774;54;20891;-71
2021/08/13 06:28:19;;;;;;;4.33;0.93;;;;;;;;;;2618706;54;20370;-71
2021/08/13 06:30:45;;;;;;;4.32;0.75;;;;;;;;;;2619195;39;20817;-72
2021/08/13 06:33:11;;;;;;;4.18;0.98;;;;;;;;;;2619107;54;20355;-72
2021/08/13 06:35:38;;;;;;;6.05;0.80;;;;;;;;;;2618920;54;20851;-72
2021/08/13 06:38:04;;;;;;;2.60;0.70;;;;;;;;;;2618815;54;20376;-73
2021/08/13 06:40:32;;;;;;;3.80;0.80;;;;;;;;;;2618685;54;20355;-72
2021/08/13 06:43:00;;;;;;;3.13;0.80;;;;;;;;;;2619135;39;20698;-72
2021/08/13 06:45:27;;;;;;;3.97;1.00;;;;;;;;;;2618114;46;20367;-72
2021/08/13 06:47:53;;;;;;;4.83;0.83;;;;;;;;;;2618714;54;20455;-72
2021/08/13 06:50:20;;;;;;;5.90;0.75;;;;;;;;;;2618696;54;20446;-72
2021/08/13 06:52:46;;;;;;;7.40;0.90;;;;;;;;;;2618578;54;20395;-71
2021/08/13 06:55:13;;;;;;;4.90;0.80;;;;;;;;;;2618565;54;20362;-72
2021/08/13 06:57:40;;;;;;;3.38;0.77;;;;;;;;;;2618569;54;20431;-73
2021/08/13 07:00:09;;;;;;;3.30;0.70;;;;;;;;;;2618095;47;20366;-72
2021/08/13 07:02:35;;;;;;;4.88;0.98;;;;;;;;;;2618642;54;20367;-73
2021/08/13 07:05:02;;;;;;;4.50;0.77;;;;;;;;;;2618098;46;20382;-72
2021/08/13 07:07:30;;;;;;;4.60;0.88;;;;;;;;;;2618676;54;20355;-72
2021/08/13 07:09:56;;;;;;;4.05;1.02;;;;;;;;;;2618633;54;20355;-73
2021/08/13 07:12:22;;;;;;;9.38;1.00;;;;;;;;;;2618613;54;20369;-72
2021/08/13 07:14:49;;;;;;;3.20;0.90;;;;;;;;;;2618019;54;20351;-73
2021/08/13 07:17:16;;;;;;;4.47;0.90;;;;;;;;;;2618714;54;20874;-72
2021/08/13 07:19:42;;;;;;;3.83;0.75;;;;;;;;;;2619227;39;20819;-75
2021/08/13 07:22:09;;;;;;;3.47;1.13;;;;;;;;;;2618641;54;20362;-73
2021/08/13 07:24:35;;;;;;;5.13;1.30;;;;;;;;;;2618529;54;20355;-72
2021/08/13 07:27:01;;;;;;;5.43;1.00;;;;;;;;;;2618446;54;20358;-73
2021/08/13 07:29:27;;;;;;;6.20;0.90;;;;;;;;;;2618809;54;20433;-72
2021/08/13 07:31:55;;;;;;;5.30;0.90;;;;;;;;;;2619059;39;20745;-71
2021/08/13 07:34:23;;;;;;;8.88;1.40;;;;;;;;;;2618640;54;20377;-72
2021/08/13 07:36:49;;;;;;;3.60;0.95;;;;;;;;;;2618040;47;20367;-72
2021/08/13 07:39:16;;;;;;;4.28;0.80;;;;;;;;;;2618758;54;20352;-72
2021/08/13 07:41:42;;;;;;;4.40;1.00;;;;;;;;;;2618048;47;20347;-72
2021/08/13 07:44:08;;;;;;;3.90;1.02;;;;;;;;;;2618587;54;20343;-73
2021/08/13 07:46:34;;;;;;;3.70;0.90;;;;;;;;;;2618675;54;20851;-73
2021/08/13 07:49:01;;;;;;;6.47;1.63;;;;;;;;;;2618701;54;20388;-72
2021/08/13 07:51:28;;;;;;;3.13;0.80;;;;;;;;;;2618537;54;20348;-73
2021/08/13 07:53:55;;;;;;;3.28;0.93;;;;;;;;;;2618033;47;20367;-72
2021/08/13 07:56:21;;;;;;;5.72;1.05;;;;;;;;;;2618657;54;20367;-72
2021/08/13 07:58:47;;;;;;;4.90;1.08;;;;;;;;;;2618653;54;20351;-72
2021/08/13 08:01:13;;;;;;;3.15;0.80;;;;;;;;;;2619108;39;20732;-73
2021/08/13 08:03:39;;;;;;;5.28;0.70;;;;;;;;;;2618765;54;20380;-73
2021/08/13 08:06:06;;;;;;;4.22;1.15;;;;;;;;;;2618119;46;20392;-72
2021/08/13 08:08:34;;;;;;;4.90;0.90;;;;;;;;;;2618378;54;20366;-73
2021/08/13 08:11:00;;;;;;;4.38;0.93;;;;;;;;;;2618057;47;20974;-73
2021/08/13 08:13:26;;;;;;;4.53;1.20;;;;;;;;;;2618984;31;20811;-74
2021/08/13 08:15:52;;;;;;;5.33;1.00;;;;;;;;;;2618619;54;20350;-75
2021/08/13 08:18:20;;;;;;;4.82;1.10;;;;;;;;;;2618677;54;20898;-73
2021/08/13 08:20:47;;;;;;;3.65;1.10;;;;;;;;;;2618762;54;20852;-72
2021/08/13 08:23:13;;;;;;;3.07;0.90;;;;;;;;;;2619018;54;20385;-73
2021/08/13 08:25:41;;;;;;;5.47;0.70;;;;;;;;;;2618821;54;20442;-75
2021/08/13 08:28:07;;;;;;;4.70;0.80;;;;;;;;;;2618273;47;20920;-74
2021/08/13 08:30:34;;;;;;;4.43;1.00;;;22.70;94.20;;;;;;2618460;39;20726;-73
2021/08/13 08:33:00;;;;;;;4.75;1.13;;;27.30;90.20;;;;;;2617774;47;20359;-73
2021/08/13 08:35:26;;;;;;;4.10;0.80;;;;;;;;;;2618466;54;20375;-72
2021/08/13 08:37:53;;;;;;;6.97;1.23;;;;;;;;;;2618353;54;20359;-73
2021/08/13 08:40:23;;;;;;;8.50;1.25;;;;;;;;;;2618063;46;20363;-73
2021/08/13 08:42:50;;;;;;;4.33;0.90;;;;;;;;;;2618470;54;20355;-73
2021/08/13 08:45:16;;;;;;;3.33;0.95;;;;;;;;;;2618616;54;20851;-73
2021/08/13 08:47:43;;;;;;;4.07;0.95;;;;;;;;;;2618025;46;20912;-72
2021/08/13 08:50:10;;;;;;;6.25;1.00;;;;;;;;;;2618328;47;20480;-73
2021/08/13 08:52:37;;;;;;;5.07;0.70;;;;;;;;;;2618780;54;20365;-73
2021/08/13 08:55:04;;;;;;;4.47;0.90;;;;;;;;;;2617898;46;20365;-73
2021/08/13 08:57:33;;;;;;;4.47;0.90;;;;;;;;;;2617863;47;20366;-74
2021/08/13 09:00:01;;;;;;;16.08;2.00;;;;;;;;;;2619944;54;20359;-73
2021/08/13 09:02:27;;;;;;;5.15;1.13;;;;;;;;;;2618332;54;20367;-72
2021/08/13 09:04:53;;;;;;;9.95;1.60;;;;;;;;;;2618332;54;20343;-72
2021/08/13 09:07:20;;;;;;;6.28;1.10;;;;;;;;;;2619279;54;20863;-73
2021/08/13 09:09:46;;;;;;;5.43;1.20;;;;;;;;;;2618141;54;20454;-72
2021/08/13 09:12:12;;;;;;;3.63;1.10;;;;;;;;;;2618509;47;20466;-73
2021/08/13 09:14:40;;;;;;;3.63;0.77;;;;;;;;;;2618372;39;20712;-73
2021/08/13 09:17:08;;;;;;;2.90;1.10;;;;;;;;;;2618705;54;20366;-72
2021/08/13 09:19:38;;;;;;;4.40;1.02;;;;;;;;;;2618909;39;20765;-73
2021/08/13 09:22:08;;;;;;;3.88;0.80;;;;;;;;;;2618376;54;20408;-72
2021/08/13 09:24:37;;;;;;;4.07;1.10;;;;;;;;;;2618460;54;20359;-74
2021/08/13 09:27:14;;;;;;;5.70;1.27;;;;;;;;;;2618447;54;20359;-73
2021/08/13 09:29:41;;;;;;;6.40;1.48;;;;;;;;;;2618733;39;20719;-73
2021/08/13 09:32:08;;;;;;;6.43;1.25;;;;;;;;;;2617872;54;20363;-73
2021/08/13 09:34:35;;;;;;;5.57;1.00;;;;;;;;;;2618349;54;20381;-73
2021/08/13 09:37:02;;;;;;;5.90;1.20;;;;;;;;;;2618305;54;20358;-73
2021/08/13 09:39:29;;;;;;;7.43;1.25;;;;;;;;;;2618289;54;20350;-73
2021/08/13 09:41:56;;;;;;;4.88;1.08;;;;;;;;;;2617841;47;20388;-73
2021/08/13 09:44:24;;;;;;;6.57;0.98;;;;;;;;;;2617623;54;20362;-72
2021/08/13 09:46:57;;;;;;;3.97;1.17;;;;;;;;;;2618645;54;20363;-74
2021/08/13 09:49:25;;;;;;;6.03;1.30;;;;;;;;;;2617328;54;20478;-73
2021/08/13 09:51:52;;;;;;;3.75;1.00;;;;;;;;;;2617898;54;20347;-73
2021/08/13 09:54:18;;;;;;;6.07;0.97;;;;;;;;;;2617775;54;20883;-73
2021/08/13 09:56:44;;;;;;;5.37;1.00;;;;;;;;;;2618339;39;20714;-73
2021/08/13 09:59:14;;;;;;;3.87;1.00;;;;;;;;;;2617744;54;20351;-74
2021/08/13 10:01:41;;;;;;;6.47;1.40;;;;;;;;;;2617769;54;20363;-73
2021/08/13 10:04:07;;;;;;;3.45;1.23;;;;;;;;;;2618406;39;20723;-73
2021/08/13 10:06:35;;;;;;;4.78;0.95;;;;;;;;;;2617908;54;20393;-73
2021/08/13 10:09:02;;;;;;;4.93;1.02;;;;;;;;;;2617904;54;20355;-73
2021/08/13 10:11:28;;;;;;;4.85;1.05;;;;;;;;;;2618288;47;20388;-74
2021/08/13 10:13:55;;;;;;;4.18;0.88;;;;;;;;;;2617943;46;20359;-73
2021/08/13 10:16:22;;;;;;;4.47;1.00;;;27.20;89.50;;;;;;2617983;54;20947;-74
2021/08/13 10:18:49;;;;;;;5.72;1.30;;;31.80;80.50;;;;;;2618082;54;20354;-73
2021/08/13 10:21:16;;;;;;;3.90;1.20;;;31.60;80.30;;;;;;2619487;39;20719;-73
2021/08/13 10:23:44;;;;;;;5.10;1.10;;;;;;;;;;2618954;54;20339;-73
2021/08/13 10:26:10;;;;;;;5.90;1.35;;;;;;;;;;2619188;54;20374;-73
2021/08/13 10:28:37;;;;;;;6.00;1.20;;;;;;;;;;2618628;46;20351;-73
2021/08/13 10:31:03;;;;;;;4.95;1.25;;;;;;;;;;2620123;39;20757;-73
2021/08/13 10:33:29;;;;;;;6.45;1.38;;;31.70;79.80;;;;;;2618553;46;20392;-75
2021/08/13 10:35:58;;;;;;;5.17;1.10;;;32.00;78.40;;;;;;2619570;39;20759;-73
2021/08/13 10:38:25;;;;;;;5.07;0.95;;;;;;;;;;2619337;54;20960;-74
2021/08/13 10:40:53;;;;;;;3.40;1.10;;;;;;;;;;2618750;46;20864;-75
2021/08/13 10:43:22;;;;;;;4.90;1.00;;;31.90;79.80;;;;;;2619191;54;20382;-74
2021/08/13 10:45:53;;;;;;;4.80;1.02;;;32.40;81.10;;;;;;2620127;39;20730;-73
2021/08/13 10:48:23;;;;;;;2.97;0.73;;;32.50;79.60;;;;;;2619444;39;20854;-72
2021/08/13 10:50:55;;;;;;;6.28;1.38;;;32.40;79.50;;;;;;2619258;54;20391;-75
2021/08/13 10:53:28;;;;;;;5.13;1.10;;;32.30;81.60;;;;;;2618868;54;20374;-74
2021/08/13 10:55:56;;;;;;;5.40;1.40;;;32.30;83.90;;;;;;2619027;54;20398;-73
2021/08/13 10:58:43;;;;;;;5.18;1.17;;;32.40;80.80;;;;;;2619210;54;20381;-74
2021/08/13 11:01:10;;;;;;;5.70;0.90;;;32.30;80.50;;;;;;2618104;54;20351;-74
2021/08/13 11:03:38;;;;;;;3.45;0.98;;;32.30;80.00;;;;;;2619069;54;20362;-74
2021/08/13 11:06:04;;;;;;;4.70;1.27;;;;;;;;;;2619190;54;20938;-74
2021/08/13 11:08:46;;;;;;;7.80;1.35;;;;;;;;;;2619231;54;20371;-74
2021/08/13 11:11:14;;;;;;;5.22;1.10;;;;;;;;;;2618887;54;20446;-73
2021/08/13 11:13:41;;;;;;;5.27;1.50;;;;;;;;;;2619070;54;20371;-74
2021/08/13 11:16:22;;;;;;;5.03;1.27;;;;;;;;;;2618655;46;20354;-74
2021/08/13 11:18:55;;;;;;;6.55;1.05;;;;;;;;;;2618965;54;20343;-74
2021/08/13 11:21:31;;;;;;;5.13;1.50;;;;;;;;;;2617464;54;20355;-74
2021/08/13 11:23:58;;;;;;;5.30;1.38;;;;;;;;;;2617751;54;20339;-73
2021/08/13 11:26:39;;;;;;;8.82;1.65;;;;;;;;;;2617668;54;20401;-73
2021/08/13 11:29:20;;;;;;;4.00;1.30;;;;;;;;;;2617474;54;20412;-73
2021/08/13 11:31:51;;;;;;;5.20;1.40;;;;;;;;;;2617538;54;20331;-74
2021/08/13 11:34:41;;;;;;;4.53;1.30;;;;;;;;;;2617638;54;20360;-74
2021/08/13 11:37:07;;;;;;;5.75;1.70;;;;;;;;;;2617823;54;20351;-74
2021/08/13 11:39:37;;;;;;;5.43;1.48;;;;;;;;;;2617725;54;20388;-74
2021/08/13 11:42:05;;;;;;;4.60;1.80;;;;;;;;;;2618011;39;20769;-73
2021/08/13 11:44:31;;;;;;;3.83;1.27;;;;;;;;;;2617532;47;20367;-73
2021/08/13 11:46:59;;;;;;;5.18;1.25;;;;;;;;;;2617231;54;20347;-74
2021/08/13 11:49:26;;;;;;;4.70;1.20;;;;;;;;;;2617301;54;20351;-73
2021/08/13 11:51:52;;;;;;;4.93;1.50;;;;;;;;;;2617449;54;20370;-74
2021/08/13 11:54:25;;;;;;;4.93;1.40;;;;;;;;;;2617366;47;20391;-73
2021/08/13 11:56:51;;;;;;;6.07;2.10;;;;;;;;;;2617734;39;20823;-73
2021/08/13 11:59:18;;;;;;;5.50;1.40;;;;;;;;;;2617432;54;20355;-74
2021/08/13 12:01:48;;;;;;;5.45;1.42;;;;;;;;;;2618425;54;20339;-73
2021/08/13 12:04:23;;;;;;;4.90;1.37;;;;;;;;;;2618561;54;20354;-73
2021/08/13 12:07:02;;;;;;;4.13;1.60;;;;;;;;;;2618406;54;20351;-75
2021/08/13 12:09:29;;;;;;;3.22;1.27;;;;;;;;;;2618550;54;20660;-74
2021/08/13 12:11:56;;;;;;;4.45;1.58;;;;;;;;;;2618714;39;20729;-74
2021/08/13 12:14:22;;;;;;;5.75;1.50;;;;;;;;;;2618129;54;20356;-74
2021/08/13 12:16:51;;;;;;;5.50;1.70;;;;;;;;;;2618455;54;20354;-74
2021/08/13 12:19:18;;;;;;;4.38;1.30;;;;;;;;;;2618413;54;20351;-74
2021/08/13 12:21:52;;;;;;;4.43;1.33;;;;;;;;;;2618649;54;20355;-73
2021/08/13 12:24:28;;;;;;;3.38;1.20;;;32.40;79.80;;;;;;2618540;54;20954;-72
2021/08/13 12:26:56;;;;;;;4.18;1.30;;;34.20;80.40;;;;;;2618576;54;20347;-73
2021/08/13 12:29:26;;;;;;;4.25;1.20;;;34.20;80.80;;;;;;2618106;47;20837;-73
2021/08/13 12:31:54;;;;;;;5.03;1.20;;;34.00;80.80;;;;;;2618480;54;20347;-73
2021/08/13 12:34:22;;;;;;;6.05;1.38;;;34.00;80.70;;;;;;2618455;54;20367;-73
2021/08/13 12:37:01;;;;;;;5.30;1.25;;;33.80;78.40;;;;;;2618065;46;20346;-74
2021/08/13 12:39:29;;;;;;;2.60;1.20;;;33.90;79.40;;;;;;2618648;54;20388;-73
2021/08/13 12:41:55;;;;;;;4.50;1.20;;;34.20;79.90;;;;;;2617856;47;20363;-73
2021/08/13 12:44:21;;;;;;;3.20;1.37;;;34.50;77.00;;;;;;2618435;54;20346;-73
2021/08/13 12:46:48;;;;;;;5.28;1.73;;;34.50;79.10;;;;;;2618316;54;20370;-74
2021/08/13 12:49:14;;;;;;;5.63;1.35;;;34.50;78.60;;;;;;2618314;54;20350;-74
2021/08/13 12:51:40;;;;;;;5.10;1.55;;;34.30;79.00;;;;;;2618037;46;20865;-74
2021/08/13 12:54:33;;;;;;;4.50;1.27;;;34.20;78.20;;;;;;2618252;54;20347;-72
2021/08/13 12:57:00;;;;;;;3.38;1.10;;;34.20;78.60;;;;;;2618229;54;20370;-73
2021/08/13 12:59:34;;;;;;;5.28;1.50;;;34.20;78.40;;;;;;2618308;54;20356;-73
2021/08/13 13:02:02;;;;;;;4.65;1.25;;;34.30;77.00;;;;;;2619144;39;20719;-73
2021/08/13 13:04:46;;;;;;;3.67;1.17;;;34.50;77.70;;;;;;2617783;47;20385;-74
2021/08/13 13:07:13;;;;;;;4.93;1.10;;;34.50;77.30;;;;;;2618211;54;20355;-74
2021/08/13 13:09:41;;;;;;;7.00;1.60;;;34.50;76.00;;;;;;2618334;54;20402;-73
2021/08/13 13:12:16;;;;;;;3.55;1.10;;;34.50;78.80;;;;;;2618188;54;20355;-74
2021/08/13 13:14:42;;;;;;;6.90;1.45;;;34.50;74.10;;;;;;2618513;39;20729;-74
2021/08/13 13:17:09;;;;;;;3.88;1.25;;;34.60;76.70;;;;;;2617867;47;20362;-73
2021/08/13 13:19:36;;;;;;;4.35;1.02;;;34.70;79.50;;;;;;2617622;47;20377;-74
2021/08/13 13:22:16;;;;;;;2.38;0.85;;;34.90;76.60;;;;;;2617377;47;20469;-73
2021/08/13 13:24:43;;;;;;;4.28;1.15;;;35.30;75.30;;;;;;2617092;54;20411;-73
2021/08/13 13:27:10;;;;;;;4.23;1.03;;;;;;;;;;2617635;54;20339;-73
2021/08/13 13:29:38;;;;;;;3.28;1.10;;;35.60;75.20;;;;;;2618243;54;20593;-74
2021/08/13 13:32:03;;;;;;;;;;;;;;;;;;2618240;54;20050;-74
2021/08/13 13:34:29;;;;;;;;;;;;;;;;;;2618072;54;19939;-74
2021/08/13 13:36:55;;;;;;;;;;;;;;;;;;2618178;54;19965;-73
2021/08/13 13:39:21;;;;;;;;;;;;;;;;;;2618110;54;19935;-74
2021/08/13 13:41:47;;;;;;;;;;;;;;;;;;2618126;54;19938;-73
2021/08/13 13:44:13;;;;;;;;;;;;;;;;;;2618215;46;19942;-73
2021/08/13 13:46:39;;;;;;;;;;;;;;;;;;2618076;46;19935;-74
2021/08/13 13:49:05;;;;;;;;;;;;;;;;;;2618103;47;19981;-73
2021/08/13 13:51:31;;;;;;;;;;;;;;;;;;2618181;47;20042;-73
2021/08/13 13:53:57;;;;;;;;;;;;;;;;;;2618113;54;19945;-73
2021/08/13 13:56:22;;;;;;;;;;;;;;;;;;2619006;54;20399;-73
2021/08/13 13:58:48;;;;;;;;;;;;;;;;;;2619351;54;20030;-73
2021/08/13 14:01:14;;;;;;;;;;;;;;;;;;2619428;54;19938;-74
2021/08/13 14:03:40;;;;;;;;;;;;;;;;;;2618794;46;19938;-74
2021/08/13 14:06:06;;;;;;;;;;;;;;;;;;2619518;54;20426;-73
2021/08/13 14:08:32;;;;;;;;;;;;;;;;;;2619276;54;20029;-73
2021/08/13 14:10:58;;;;;;;;;;;;;;;;;;2618704;47;19939;-74
2021/08/13 14:13:24;;;;;;;;;;;;;;;;;;2619369;54;19939;-74
2021/08/13 14:15:50;;;;;;;;;;;;;;;;;;2618823;46;19939;-73
2021/08/13 14:18:17;;;;;;;;;;;36.40;69.20;;;;;;2619364;54;19939;-74
2021/08/13 14:20:43;;;;;;;;;;;36.40;69.20;;;;;;2619230;54;19935;-73
2021/08/13 14:23:09;;;;;;;;;;;36.50;70.80;;;;;;2619718;39;20017;-74
2021/08/13 14:25:34;;;;;;;;;;;36.40;68.90;;;;;;2619327;54;19945;-74
2021/08/13 14:28:00;;;;;;;;;;;35.80;69.50;;;;;;2619362;54;19964;-74
2021/08/13 14:30:26;;;;;;;;;;;35.60;72.10;;;;;;2618716;47;19935;-73
2021/08/13 14:32:52;;;;;;;;;;;35.50;70.30;;;;;;2619313;54;19935;-74
2021/08/13 14:35:19;;;;;;;;;;;35.80;71.50;;;;;;2619096;54;19958;-74